.
WxDataArchive / Data Records for 2011-02-27
2011-02-26 February 2011 2011-02-28

Data Records for Sunday, 27 February 2011

Time	Temp	Chill	HIndex	Humid	Dewpt	 Wind 	HiWind	WindDir	Rain 	Barom 
-----	----	-----	------	-----	-----	------	------	-------	-----	----- 
00:00	32.4	32.4	32.4	90	29.8	0	2	248	0.00	29.883 
00:05	32.4	32.4	32.4	90	29.8	0	3	248	0.00	29.883 
00:10	32.4	32.4	32.4	90	29.8	0	2	248	0.00	29.883 
00:15	32.5	32.5	32.5	90	29.9	0	2	248	0.00	29.880 
00:20	32.5	32.5	32.5	89	29.6	0	1	248	0.00	29.880 
00:25	32.5	32.5	32.5	89	29.6	0	2	248	0.00	29.880 
00:30	32.5	32.5	32.5	89	29.6	0	1	248	0.00	29.875 
00:35	32.4	32.4	32.4	89	29.5	0	0	---	0.00	29.875 
00:40	32.4	32.4	32.4	89	29.5	0	0	---	0.00	29.875 
00:45	32.4	32.4	32.4	89	29.5	0	1	248	0.00	29.877 
00:50	32.4	32.4	32.4	89	29.5	0	0	---	0.00	29.877 
00:55	32.4	32.4	32.4	89	29.5	0	1	248	0.00	29.877 
01:00	32.4	32.4	32.4	90	29.8	0	0	---	0.00	29.875 
01:05	32.4	32.4	32.4	90	29.8	0	0	---	0.00	29.875 
01:10	32.4	32.4	32.4	90	29.8	0	1	248	0.00	29.875 
01:15	32.4	32.4	32.4	90	29.8	0	0	---	0.00	29.869 
01:20	32.4	32.4	32.4	90	29.8	0	0	---	0.00	29.869 
01:25	32.4	32.4	32.4	90	29.8	0	1	248	0.00	29.869 
01:30	32.4	32.4	32.4	90	29.8	0	1	248	0.00	29.865 
01:35	32.4	32.4	32.4	90	29.8	0	1	248	0.00	29.865 
01:40	32.5	32.5	32.5	90	29.9	0	0	---	0.00	29.865 
01:45	32.5	32.5	32.5	90	29.9	0	1	248	0.00	29.865 
01:50	32.5	32.5	32.5	90	29.9	0	1	248	0.00	29.865 
01:55	32.5	32.5	32.5	90	29.9	0	0	---	0.00	29.865 
02:00	32.5	32.5	32.5	90	29.9	0	1	248	0.00	29.867 
02:05	32.5	32.5	32.5	90	29.9	0	0	---	0.00	29.867 
02:10	32.5	32.5	32.5	90	29.9	0	0	---	0.00	29.867 
02:15	32.5	32.5	32.5	90	29.9	0	0	---	0.00	29.868 
02:20	32.5	32.5	32.5	90	29.9	0	0	---	0.00	29.868 
02:25	32.5	32.5	32.5	90	29.9	0	1	248	0.00	29.868 
02:30	32.7	32.7	32.7	90	30.1	0	0	---	0.00	29.864 
02:35	32.7	32.7	32.7	90	30.1	0	0	---	0.00	29.864 
02:40	32.7	32.7	32.7	90	30.1	0	1	248	0.00	29.864 
02:45	32.7	32.7	32.7	90	30.1	0	2	248	0.00	29.862 
02:50	32.8	32.8	32.8	90	30.2	0	1	248	0.00	29.862 
02:55	32.8	32.8	32.8	90	30.2	0	1	248	0.00	29.862 
03:00	32.8	32.8	32.8	90	30.2	0	0	---	0.00	29.862 
03:05	32.8	32.8	32.8	90	30.2	0	0	---	0.00	29.862 
03:10	32.8	32.8	32.8	90	30.2	0	0	---	0.00	29.862 
03:15	32.8	32.8	32.8	90	30.2	0	0	---	0.00	29.856 
03:20	32.9	32.9	32.9	90	30.3	0	1	248	0.00	29.856 
03:25	32.9	32.9	32.9	90	30.3	0	1	248	0.00	29.856 
03:30	32.9	32.9	32.9	90	30.3	0	1	248	0.00	29.848 
03:35	32.9	32.9	32.9	90	30.3	0	1	248	0.00	29.848 
03:40	32.9	32.9	32.9	90	30.3	0	0	---	0.00	29.848 
03:45	32.9	32.9	32.9	90	30.3	0	0	---	0.00	29.849 
03:50	32.9	32.9	32.9	90	30.3	0	0	---	0.00	29.849 
03:55	32.9	32.9	32.9	90	30.3	0	0	---	0.00	29.849 
04:00	32.9	32.9	32.9	90	30.3	0	0	---	0.00	29.857 
04:05	32.9	32.9	32.9	90	30.3	0	0	---	0.00	29.857 
04:10	33.1	33.1	33.1	90	30.5	0	1	248	0.00	29.857 
04:15	33.1	33.1	33.1	90	30.5	0	1	248	0.00	29.862 
04:20	33.2	33.2	33.2	90	30.6	0	0	---	0.00	29.862 
04:25	33.2	33.2	33.2	90	30.6	0	1	248	0.00	29.862 
04:30	33.2	33.2	33.2	90	30.6	0	1	248	0.00	29.864 
04:35	33.4	33.4	33.4	90	30.8	0	1	248	0.00	29.864 
04:40	33.4	33.4	33.4	90	30.8	0	1	248	0.00	29.864 
04:45	33.5	33.5	33.5	90	30.9	0	1	248	0.00	29.863 
04:50	33.5	33.5	33.5	90	30.9	0	1	248	0.00	29.863 
04:55	33.7	33.7	33.7	90	31.1	0	1	248	0.00	29.863 
05:00	33.7	33.7	33.7	90	31.1	0	1	248	0.00	29.858 
05:05	33.8	33.8	33.8	90	31.2	0	1	248	0.00	29.858 
05:10	33.8	33.8	33.8	91	31.5	0	1	248	0.00	29.858 
05:15	34.0	34.0	34.0	91	31.7	0	1	248	0.00	29.860 
05:20	34.0	34.0	34.0	91	31.7	0	1	248	0.00	29.860 
05:25	34.0	34.0	34.0	91	31.7	0	1	248	0.00	29.860 
05:30	34.1	34.1	34.1	91	31.8	0	2	248	0.00	29.863 
05:35	34.1	34.1	34.1	91	31.8	0	1	248	0.00	29.863 
05:40	34.1	34.1	34.1	91	31.8	0	1	248	0.00	29.863 
05:45	34.1	34.1	34.1	91	31.8	0	3	248	0.00	29.874 
05:50	34.1	34.1	34.1	91	31.8	0	1	248	0.00	29.874 
05:55	34.3	34.3	34.3	91	32.0	0	2	248	0.00	29.874 
06:00	34.3	34.3	34.3	91	32.0	0	2	248	0.00	29.874 
06:05	34.3	34.3	34.3	91	32.0	0	2	248	0.00	29.874 
06:10	34.3	34.3	34.3	91	32.0	0	1	248	0.00	29.874 
06:15	34.4	34.4	34.4	91	32.0	0	1	248	0.00	29.880 
06:20	34.4	34.4	34.4	91	32.0	0	1	248	0.00	29.880 
06:25	34.4	34.4	34.4	92	32.3	0	1	248	0.00	29.880 
06:30	34.4	34.4	34.4	92	32.3	0	2	248	0.00	29.888 
06:35	34.4	34.4	34.4	92	32.3	0	2	248	0.00	29.888 
06:40	34.4	34.4	34.4	92	32.3	0	1	248	0.00	29.888 
06:45	34.4	34.4	34.4	92	32.3	0	2	248	0.00	29.884 
06:50	34.4	34.4	34.4	92	32.3	0	2	248	0.00	29.884 
06:55	34.6	34.6	34.6	92	32.5	0	1	248	0.00	29.884 
07:00	34.6	34.6	34.6	92	32.5	0	1	248	0.00	29.893 
07:05	34.6	34.6	34.6	92	32.5	0	1	248	0.00	29.893 
07:10	34.6	34.6	34.6	92	32.5	0	1	248	0.00	29.893 
07:15	34.6	34.6	34.6	92	32.5	0	1	248	0.00	29.892 
07:20	34.6	34.6	34.6	92	32.5	0	1	248	0.00	29.892 
07:25	34.6	34.6	34.6	92	32.5	0	2	248	0.00	29.892 
07:30	34.6	34.6	34.6	93	32.8	0	2	248	0.00	29.894 
07:35	34.6	34.6	34.6	93	32.8	0	1	248	0.00	29.894 
07:40	34.7	34.7	34.7	93	32.9	0	2	248	0.00	29.894 
07:45	34.7	34.7	34.7	93	32.9	0	1	248	0.00	29.896 
07:50	34.7	34.7	34.7	93	32.9	0	2	248	0.00	29.896 
07:55	34.7	34.7	34.7	93	32.9	0	1	248	0.00	29.896 
08:00	34.7	34.7	34.7	93	32.9	0	1	248	0.00	29.894 
08:05	34.7	34.7	34.7	93	32.9	0	2	248	0.00	29.894 
08:10	34.7	34.7	34.7	94	33.2	0	1	248	0.00	29.894 
08:15	34.7	34.7	34.7	94	33.2	0	2	248	0.00	29.892 
08:20	34.9	34.9	34.9	94	33.4	0	2	248	0.00	29.892 
08:25	34.9	34.9	34.9	94	33.4	1	3	158	0.00	29.892 
08:30	34.9	34.9	34.9	94	33.4	0	1	158	0.00	29.893 
08:35	34.9	34.9	34.9	94	33.4	0	1	158	0.00	29.893 
08:40	34.9	34.9	34.9	94	33.4	0	1	158	0.00	29.893 
08:45	34.9	34.9	34.9	94	33.4	0	2	158	0.00	29.894 
08:50	35.0	35.0	35.0	94	33.5	0	0	---	0.00	29.894 
08:55	35.2	35.2	35.2	94	33.6	0	1	180	0.00	29.894 
09:00	35.2	35.2	35.2	95	33.9	0	1	180	0.00	29.906 
09:05	35.3	35.3	35.3	95	34.0	0	1	180	0.00	29.906 
09:10	35.5	35.5	35.5	95	34.2	0	2	202	0.00	29.906 
09:15	35.5	35.5	35.5	95	34.2	0	2	202	0.00	29.908 
09:20	35.6	35.6	35.6	95	34.3	0	2	202	0.00	29.908 
09:25	35.8	35.8	35.8	95	34.5	0	1	202	0.00	29.908 
09:30	35.9	35.9	35.9	95	34.6	0	2	202	0.00	29.912 
09:35	35.9	35.9	35.9	95	34.6	0	2	112	0.00	29.912 
09:40	36.0	36.0	36.0	95	34.7	0	2	112	0.00	29.912 
09:45	36.0	36.0	36.0	95	34.7	0	3	112	0.00	29.907 
09:50	36.2	36.2	36.2	95	34.9	0	2	112	0.00	29.907 
09:55	36.2	36.2	36.2	94	34.6	0	1	112	0.00	29.907 
10:00	36.3	36.3	36.3	94	34.7	0	1	112	0.00	29.911 
10:05	36.3	36.3	36.3	94	34.7	0	3	112	0.00	29.911 
10:10	36.5	36.5	36.5	94	34.9	0	5	248	0.00	29.911 
10:15	36.6	36.6	36.6	94	35.0	0	2	248	0.00	29.911 
10:20	36.6	36.6	36.6	94	35.0	1	3	90	0.01	29.911 
10:25	36.8	36.8	36.8	94	35.2	0	3	90	0.00	29.911 
10:30	37.0	37.0	37.0	94	35.4	0	2	248	0.00	29.916 
10:35	37.0	37.0	37.0	93	35.2	1	4	248	0.00	29.916 
10:40	37.0	37.0	37.0	93	35.2	1	4	248	0.00	29.916 
10:45	37.2	37.2	37.2	93	35.4	0	2	248	0.00	29.922 
10:50	37.3	37.3	37.3	93	35.5	0	3	248	0.00	29.922 
10:55	37.5	37.5	37.5	92	35.4	0	3	248	0.00	29.922 
11:00	37.6	37.6	37.6	92	35.5	0	1	248	0.00	29.922 
11:05	37.9	37.9	37.9	92	35.8	0	1	248	0.00	29.922 
11:10	38.0	38.0	38.0	91	35.6	1	5	248	0.00	29.922 
11:15	38.2	38.2	38.2	91	35.8	1	4	248	0.00	29.921 
11:20	38.3	38.3	38.3	90	35.6	1	3	248	0.00	29.921 
11:25	38.3	38.3	38.3	90	35.6	1	4	248	0.00	29.921 
11:30	38.5	38.5	38.5	89	35.5	1	6	225	0.00	29.918 
11:35	38.8	38.8	38.8	89	35.8	1	5	225	0.00	29.918 
11:40	38.8	38.8	38.8	88	35.6	1	3	225	0.00	29.918 
11:45	39.1	39.1	39.1	88	35.9	1	3	225	0.00	29.917 
11:50	39.2	39.2	39.2	87	35.7	1	4	225	0.00	29.917 
11:55	39.2	39.2	39.2	87	35.7	1	3	225	0.00	29.917 
12:00	39.2	39.2	39.2	87	35.7	1	3	225	0.00	29.904 
12:05	39.3	39.3	39.3	86	35.5	1	4	225	0.00	29.904 
12:10	39.6	39.6	39.6	86	35.8	0	2	225	0.00	29.904 
12:15	39.8	39.8	39.8	86	36.0	1	4	225	0.00	29.879 
12:20	40.1	40.1	40.1	85	36.0	0	2	225	0.00	29.879 
12:25	40.5	40.5	40.5	84	36.1	0	3	90	0.00	29.879 
12:30	41.1	41.1	41.1	84	36.6	1	3	90	0.00	29.864 
12:35	41.5	41.5	41.5	83	36.7	0	2	270	0.01	29.864 
12:40	41.5	41.5	41.5	80	35.8	2	5	270	0.00	29.864 
12:45	41.5	41.5	41.5	80	35.8	1	5	248	0.00	29.863 
12:50	41.5	41.5	41.5	80	35.8	1	4	248	0.00	29.863 
12:55	41.8	41.8	41.8	78	35.5	0	2	158	0.00	29.863 
13:00	41.9	41.9	41.9	78	35.5	0	2	158	0.00	29.859 
13:05	42.1	42.1	42.1	77	35.4	1	3	270	0.00	29.859 
13:10	42.1	42.1	42.1	77	35.4	2	7	248	0.00	29.859 
13:15	42.2	42.2	42.2	76	35.2	1	3	248	0.00	29.860 
13:20	42.2	42.2	42.2	76	35.2	1	5	248	0.00	29.860 
13:25	42.3	42.3	42.3	76	35.3	1	4	248	0.00	29.860 
13:30	42.6	42.6	42.6	75	35.2	0	3	248	0.00	29.849 
13:35	42.8	42.8	42.8	75	35.4	0	3	248	0.00	29.849 
13:40	42.8	42.8	42.8	75	35.4	0	2	248	0.00	29.849 
13:45	42.8	42.8	42.8	75	35.4	1	4	112	0.00	29.833 
13:50	42.5	42.5	42.5	76	35.5	1	3	112	0.00	29.833 
13:55	42.6	42.6	42.6	75	35.2	0	2	135	0.00	29.833 
14:00	42.9	42.9	42.9	75	35.5	1	5	135	0.00	29.824 
14:05	42.9	42.9	42.9	74	35.2	0	2	248	0.00	29.824 
14:10	43.1	43.1	43.1	74	35.4	0	4	248	0.00	29.824 
14:15	42.9	42.9	42.9	74	35.2	0	1	270	0.00	29.815 
14:20	42.6	42.6	42.6	75	35.2	1	3	270	0.00	29.815 
14:25	42.5	42.5	42.5	75	35.1	0	2	270	0.00	29.815 
14:30	42.3	42.3	42.3	75	35.0	1	3	248	0.00	29.810 
14:35	42.3	42.3	42.3	76	35.3	1	3	90	0.00	29.810 
14:40	42.3	42.3	42.3	76	35.3	0	3	292	0.00	29.810 
14:45	42.5	42.5	42.5	76	35.5	0	3	292	0.00	29.805 
14:50	42.5	42.5	42.5	76	35.5	1	4	90	0.00	29.805 
14:55	42.8	42.8	42.8	76	35.8	1	2	90	0.00	29.805 
15:00	42.9	42.9	42.9	75	35.5	1	3	90	0.00	29.773 
15:05	43.1	43.1	43.1	75	35.7	1	3	90	0.00	29.773 
15:10	43.1	43.1	43.1	74	35.4	1	4	90	0.00	29.773 
15:15	43.2	43.2	43.2	74	35.5	1	4	90	0.00	29.777 
15:20	43.1	43.1	43.1	74	35.4	1	2	90	0.00	29.777 
15:25	42.9	42.9	42.9	75	35.5	1	6	90	0.00	29.777 
15:30	42.9	42.9	42.9	75	35.5	2	4	90	0.00	29.773 
15:35	42.9	42.9	42.9	75	35.5	0	3	112	0.00	29.773 
15:40	42.9	42.9	42.9	75	35.5	1	3	112	0.00	29.773 
15:45	42.9	42.9	42.9	75	35.5	1	4	112	0.00	29.782 
15:50	42.8	42.8	42.8	75	35.4	1	5	112	0.00	29.782 
15:55	42.6	42.6	42.6	75	35.2	0	2	135	0.00	29.782 
16:00	42.5	42.5	42.5	76	35.5	1	3	135	0.00	29.774 
16:05	42.3	42.3	42.3	76	35.3	0	2	90	0.00	29.774 
16:10	42.2	42.2	42.2	77	35.5	0	1	90	0.00	29.774 
16:15	42.2	42.2	42.2	77	35.5	0	2	90	0.00	29.777 
16:20	42.2	42.2	42.2	77	35.5	1	3	90	0.00	29.777 
16:25	42.2	42.2	42.2	77	35.5	1	3	90	0.00	29.777 
16:30	42.1	42.1	42.1	77	35.4	1	5	90	0.00	29.740 
16:35	42.1	42.1	42.1	77	35.4	1	3	90	0.00	29.740 
16:40	41.9	41.9	41.9	77	35.2	1	3	90	0.00	29.740 
16:45	41.9	41.9	41.9	77	35.2	1	2	90	0.00	29.759 
16:50	41.8	41.8	41.8	78	35.5	1	2	90	0.00	29.759 
16:55	41.8	41.8	41.8	78	35.5	1	4	90	0.00	29.759 
17:00	41.6	41.6	41.6	78	35.3	2	3	90	0.00	29.733 
17:05	41.6	41.6	41.6	78	35.3	1	3	90	0.00	29.733 
17:10	41.5	41.5	41.5	78	35.2	1	3	90	0.00	29.733 
17:15	41.5	41.5	41.5	79	35.5	1	4	90	0.00	29.734 
17:20	41.3	41.3	41.3	79	35.3	2	3	90	0.00	29.734 
17:25	41.2	41.2	41.2	79	35.2	1	3	90	0.00	29.734 
17:30	41.1	41.1	41.1	80	35.4	0	2	90	0.00	29.730 
17:35	40.9	40.9	40.9	80	35.2	0	1	90	0.00	29.730 
17:40	40.8	40.8	40.8	81	35.4	0	2	90	0.00	29.730 
17:45	40.5	40.5	40.5	81	35.1	1	2	90	0.00	29.724 
17:50	40.3	40.3	40.3	81	34.9	0	3	90	0.00	29.724 
17:55	40.2	40.2	40.2	81	34.8	0	1	90	0.00	29.724 
18:00	40.1	40.1	40.1	82	35.1	0	1	90	0.00	29.731 
18:05	40.1	40.1	40.1	82	35.1	0	1	90	0.00	29.731 
18:10	39.9	39.9	39.9	82	34.9	0	2	90	0.00	29.731 
18:15	39.9	39.9	39.9	82	34.9	0	2	90	0.00	29.718 
18:20	39.8	39.8	39.8	83	35.1	1	2	90	0.00	29.718 
18:25	39.6	39.6	39.6	83	34.9	2	4	90	0.00	29.718 
18:30	39.3	39.3	39.3	84	34.9	1	2	90	0.00	29.703 
18:35	39.2	39.2	39.2	84	34.8	1	3	90	0.00	29.703 
18:40	39.2	39.2	39.2	84	34.8	1	3	90	0.00	29.703 
18:45	38.9	38.9	38.9	84	34.5	0	1	90	0.00	29.717 
18:50	38.8	38.8	38.8	84	34.4	0	0	---	0.00	29.717 
18:55	38.9	38.9	38.9	85	34.8	0	2	90	0.00	29.717 
19:00	38.9	38.9	38.9	85	34.8	1	5	22	0.00	29.746 
19:05	38.9	38.9	38.9	85	34.8	1	3	112	0.00	29.746 
19:10	38.9	38.9	38.9	85	34.8	0	3	112	0.00	29.746 
19:15	38.8	38.8	38.8	85	34.7	1	3	112	0.00	29.708 
19:20	38.8	38.8	38.8	85	34.7	1	4	112	0.00	29.708 
19:25	38.8	38.8	38.8	85	34.7	2	6	90	0.00	29.708 
19:30	38.9	38.9	38.9	85	34.8	2	5	90	0.00	29.704 
19:35	38.8	38.8	38.8	85	34.7	1	3	90	0.00	29.704 
19:40	38.6	38.6	38.6	85	34.5	2	4	90	0.00	29.704 
19:45	38.5	38.5	38.5	85	34.4	3	5	90	0.00	29.688 
19:50	38.5	38.5	38.5	86	34.7	3	6	90	0.00	29.688 
19:55	38.6	38.6	38.6	86	34.8	2	4	112	0.00	29.688 
20:00	38.6	38.6	38.6	86	34.8	1	3	112	0.00	29.682 
20:05	38.8	38.8	38.8	86	35.0	2	4	112	0.00	29.682 
20:10	38.8	38.8	38.8	86	35.0	2	4	112	0.00	29.682 
20:15	38.8	38.8	38.8	86	35.0	2	4	112	0.00	29.680 
20:20	38.8	38.8	38.8	86	35.0	1	4	112	0.00	29.680 
20:25	38.9	38.9	38.9	86	35.1	2	5	112	0.00	29.680 
20:30	38.9	38.9	38.9	86	35.1	2	4	112	0.00	29.675 
20:35	38.9	38.9	38.9	86	35.1	1	5	90	0.00	29.675 
20:40	38.9	38.9	38.9	86	35.1	0	2	90	0.00	29.675 
20:45	38.8	38.8	38.8	86	35.0	0	2	90	0.00	29.671 
20:50	38.6	38.6	38.6	86	34.8	0	1	90	0.00	29.671 
20:55	38.5	38.5	38.5	86	34.7	0	1	90	0.00	29.671 
21:00	38.3	38.3	38.3	86	34.5	0	3	90	0.00	29.660 
21:05	38.3	38.3	38.3	87	34.8	0	3	90	0.00	29.660 
21:10	38.3	38.3	38.3	87	34.8	0	2	90	0.00	29.660 
21:15	38.3	38.3	38.3	87	34.8	0	1	90	0.00	29.653 
21:20	38.3	38.3	38.3	88	35.1	0	2	90	0.00	29.653 
21:25	38.3	38.3	38.3	88	35.1	0	2	90	0.00	29.653 
21:30	38.3	38.3	38.3	88	35.1	0	3	90	0.00	29.650 
21:35	38.3	38.3	38.3	88	35.1	1	2	90	0.00	29.650 
21:40	38.3	38.3	38.3	88	35.1	0	2	90	0.00	29.650 
21:45	38.2	38.2	38.2	88	35.0	0	2	90	0.00	29.634 
21:50	38.2	38.2	38.2	88	35.0	0	1	90	0.00	29.634 
21:55	38.2	38.2	38.2	88	35.0	1	2	90	0.00	29.634 
22:00	38.0	38.0	38.0	89	35.1	0	1	90	0.00	29.631 
22:05	38.0	38.0	38.0	89	35.1	0	1	90	0.00	29.631 
22:10	38.0	38.0	38.0	89	35.1	0	1	90	0.00	29.631 
22:15	37.9	37.9	37.9	90	35.2	0	1	90	0.00	29.615 
22:20	37.9	37.9	37.9	90	35.2	0	0	---	0.00	29.615 
22:25	37.8	37.8	37.8	90	35.1	0	0	---	0.00	29.615 
22:30	37.8	37.8	37.8	90	35.1	0	0	---	0.00	29.614 
22:35	37.8	37.8	37.8	91	35.4	0	1	90	0.00	29.614 
22:40	37.8	37.8	37.8	91	35.4	0	1	90	0.00	29.614 
22:45	37.8	37.8	37.8	91	35.4	0	1	90	0.00	29.588 
22:50	37.8	37.8	37.8	92	35.7	1	2	90	0.00	29.588 
22:55	37.9	37.9	37.9	92	35.8	1	2	90	0.00	29.588 
23:00	37.9	37.9	37.9	92	35.8	0	2	90	0.00	29.589 
23:05	37.9	37.9	37.9	92	35.8	0	1	90	0.00	29.589 
23:10	37.9	37.9	37.9	92	35.8	0	1	90	0.01	29.589 
23:15	37.8	37.8	37.8	92	35.7	0	0	---	0.00	29.564 
23:20	37.6	37.6	37.6	92	35.5	0	3	90	0.01	29.564 
23:25	37.6	37.6	37.6	93	35.8	0	0	---	0.00	29.564 
23:30	37.6	37.6	37.6	93	35.8	1	3	90	0.00	29.540 
23:35	37.8	37.8	37.8	93	36.0	1	3	90	0.00	29.540 
23:40	37.9	37.9	37.9	94	36.3	1	3	90	0.01	29.540 
23:45	37.9	37.9	37.9	93	36.1	0	1	90	0.00	29.549 
23:50	37.9	37.9	37.9	94	36.3	0	1	90	0.00	29.549 
23:55	37.9	37.9	37.9	94	36.3	0	1	90	0.00	29.549 

CoCoRaHS
IN-AL-39
A2 Web Hosting
Creative Commons License
GoDaddy
search engine by freefind advanced

loaded 2018-11-17 14:21:35 • last modified 2010-11-18 10:43:29
Privacy PolicyDisclaimer
• wx.awcolley.com is powered by PmWiki v.2002016 •
• all content (unless otherwise noted) © 2018 A W Colley